Time;durP1;ratioP1;P1;durP2;ratioP2;P2;SDS_P1;SDS_P2;PMS_P1;PMS_P2;Temp;Humidity;BMP_temperature;BMP_pressure;BME280_temperature;BME280_humidity;BME280_pressure;Samples;Min_cycle;Max_cycle;Signal;HPM_P1;HPM_P2
2021/11/05 00:00:18;;;;;;;35.55;19.20;;;-0.50;91.90;;;;;;5094218;28;20055;-85
2021/11/05 00:02:46;;;;;;;34.22;17.98;;;-0.30;91.90;;;;;;5074083;28;20040;-85
2021/11/05 00:05:17;;;;;;;40.83;20.58;;;-0.20;91.70;;;;;;5074029;28;20040;-85
2021/11/05 00:07:44;;;;;;;34.78;18.08;;;-0.20;91.40;;;;;;5093516;28;20051;-85
2021/11/05 00:10:15;;;;;;;32.17;18.08;;;-0.20;91.30;;;;;;5094628;28;20048;-85
2021/11/05 00:12:43;;;;;;;34.50;18.23;;;-0.20;91.50;;;;;;5092891;28;20051;-85
2021/11/05 00:15:11;;;;;;;30.25;17.38;;;-0.10;91.60;;;;;;5074589;28;20055;-85
2021/11/05 00:17:39;;;;;;;30.13;17.63;;;0.00;91.60;;;;;;5092054;28;20036;-85
2021/11/05 00:20:08;;;;;;;34.08;18.55;;;0.00;91.50;;;;;;5090543;28;20053;-85
2021/11/05 00:22:35;;;;;;;36.45;19.38;;;0.10;91.40;;;;;;5117184;28;20051;-85
2021/11/05 00:25:06;;;;;;;41.13;21.83;;;0.20;91.30;;;;;;5085192;28;20040;-85
2021/11/05 00:27:36;;;;;;;40.90;21.17;;;0.20;91.30;;;;;;5083197;28;20056;-85
2021/11/05 00:30:08;;;;;;;38.05;19.55;;;0.30;91.20;;;;;;5081191;28;20043;-85
2021/11/05 00:32:36;;;;;;;34.88;17.83;;;0.40;91.10;;;;;;5091687;28;20052;-84
2021/11/05 00:35:11;;;;;;;33.20;17.40;;;0.40;90.90;;;;;;5100623;28;20044;-84
2021/11/05 00:37:39;;;;;;;30.27;16.23;;;0.30;90.80;;;;;;5102676;28;20040;-85
2021/11/05 00:40:08;;;;;;;32.85;18.02;;;0.30;90.90;;;;;;5103092;28;20398;-85
2021/11/05 00:42:36;;;;;;;37.25;19.08;;;0.20;91.10;;;;;;5099253;28;20526;-85
2021/11/05 00:45:05;;;;;;;37.85;17.98;;;0.20;91.40;;;;;;5095654;28;20056;-84
2021/11/05 00:47:33;;;;;;;32.50;19.35;;;0.20;91.50;;;;;;5081819;27;20061;-84
2021/11/05 00:50:00;;;;;;;32.42;18.42;;;0.30;91.50;;;;;;5059071;28;20045;-84
2021/11/05 00:52:28;;;;;;;30.80;16.23;;;0.30;91.50;;;;;;5096678;27;20394;-85
2021/11/05 00:54:56;;;;;;;37.38;17.40;;;0.30;91.40;;;;;;5090025;28;20493;-84
2021/11/05 00:57:24;;;;;;;36.60;16.48;;;0.40;91.40;;;;;;5091652;28;20509;-85
2021/11/05 00:59:52;;;;;;;32.35;15.57;;;0.40;91.20;;;;;;5084583;28;20036;-84
2021/11/05 01:02:20;;;;;;;33.95;17.25;;;0.30;91.10;;;;;;5085434;28;20493;-85
2021/11/05 01:04:48;;;;;;;33.83;17.20;;;0.30;91.10;;;;;;5082380;28;20055;-85
2021/11/05 01:07:16;;;;;;;37.50;17.83;;;0.20;91.10;;;;;;5095237;28;20534;-85
2021/11/05 01:09:44;;;;;;;33.17;18.55;;;0.10;91.00;;;;;;5077183;28;20417;-85
2021/11/05 01:12:12;;;;;;;36.65;18.23;;;0.00;91.00;;;;;;5092853;28;20422;-86
2021/11/05 01:14:40;;;;;;;40.75;18.65;;;0.00;91.00;;;;;;5065454;28;20040;-84
2021/11/05 01:17:09;;;;;;;38.40;17.92;;;-0.10;91.10;;;;;;5078357;28;20440;-85
2021/11/05 01:19:37;;;;;;;33.80;17.70;;;-0.20;91.30;;;;;;5074695;28;20059;-85
2021/11/05 01:22:05;;;;;;;40.03;19.13;;;-0.30;91.40;;;;;;5092488;28;20044;-85
2021/11/05 01:24:33;;;;;;;40.17;20.17;;;-0.40;91.50;;;;;;5093783;28;20048;-85
2021/11/05 01:27:01;;;;;;;37.00;18.17;;;-0.40;91.80;;;;;;5077241;28;20059;-85
2021/11/05 01:29:29;;;;;;;31.38;16.58;;;-0.40;92.00;;;;;;5074418;28;20052;-86
2021/11/05 01:34:23;;;;;;;36.05;17.83;;;-0.60;91.70;;;;;;5230515;22;20499;-76
2021/11/05 01:36:51;;;;;;;39.88;18.17;;;-0.60;91.60;;;;;;5077946;28;20063;-75
2021/11/05 01:39:18;;;;;;;31.27;17.75;;;-0.70;91.60;;;;;;5090721;28;20055;-74
2021/11/05 01:41:46;;;;;;;33.13;18.25;;;-0.70;91.70;;;;;;5055223;28;20068;-76
2021/11/05 01:44:14;;;;;;;42.13;20.58;;;-0.80;91.70;;;;;;5079114;28;20404;-76
2021/11/05 01:46:42;;;;;;;31.00;17.30;;;-0.90;91.80;;;;;;5068670;28;20044;-76
2021/11/05 01:49:11;;;;;;;40.35;18.95;;;-0.90;92.10;;;;;;5082635;28;20059;-75
2021/11/05 01:51:39;;;;;;;31.70;16.73;;;-0.90;92.30;;;;;;5054712;28;20053;-75
2021/11/05 01:54:10;;;;;;;28.38;14.48;;;-0.90;92.10;;;;;;5061672;28;20047;-76
2021/11/05 01:56:39;;;;;;;36.17;18.42;;;-1.00;92.00;;;;;;5072239;28;20527;-75
2021/11/05 01:59:30;;;;;;;49.10;23.83;;;-1.10;92.00;;;;;;5060519;28;20051;-75
2021/11/05 02:02:01;;;;;;;43.03;20.70;;;-1.00;92.30;;;;;;5077851;28;20497;-75
2021/11/05 02:04:28;;;;;;;44.38;24.05;;;-1.10;92.40;;;;;;5054017;28;20059;-76
2021/11/05 02:06:57;;;;;;;49.72;24.02;;;-1.10;92.50;;;;;;5079874;28;20500;-75
2021/11/05 02:09:27;;;;;;;43.55;22.63;;;-1.00;92.70;;;;;;5067397;28;20067;-76
2021/11/05 02:11:58;;;;;;;44.42;22.42;;;-1.00;92.80;;;;;;5073443;28;20059;-75
2021/11/05 02:14:27;;;;;;;39.45;19.63;;;-1.00;92.60;;;;;;5056548;28;20040;-76
2021/11/05 02:16:58;;;;;;;52.35;22.35;;;-1.00;92.30;;;;;;5072103;28;20457;-76
2021/11/05 02:19:28;;;;;;;43.20;22.48;;;-1.10;92.10;;;;;;5054898;28;20084;-75
2021/11/05 02:21:57;;;;;;;41.40;20.05;;;-1.10;92.00;;;;;;5070666;28;20507;-75
2021/11/05 02:24:27;;;;;;;37.95;19.92;;;-1.20;92.10;;;;;;5071775;28;20488;-76
2021/11/05 02:26:56;;;;;;;40.30;22.55;;;-1.20;92.20;;;;;;5062486;28;20052;-75
2021/11/05 02:29:24;;;;;;;43.17;23.27;;;-1.30;92.20;;;;;;5090804;28;20048;-75
2021/11/05 02:31:52;;;;;;;52.42;25.48;;;-1.40;92.30;;;;;;5055845;28;20040;-75
2021/11/05 02:34:20;;;;;;;52.15;26.65;;;-1.40;92.50;;;;;;5057563;28;20056;-76
2021/11/05 02:36:47;;;;;;;61.45;30.00;;;-1.40;92.80;;;;;;5071914;28;20052;-76
2021/11/05 02:39:15;;;;;;;59.20;28.58;;;-1.30;93.10;;;;;;5071908;28;20408;-76
2021/11/05 02:41:48;;;;;;;48.03;23.20;;;-1.30;92.90;;;;;;5071880;28;20044;-76
2021/11/05 02:44:16;;;;;;;68.30;26.27;;;-1.30;92.70;;;;;;5090150;28;20511;-76
2021/11/05 02:46:44;;;;;;;47.85;22.98;;;-1.40;92.50;;;;;;5072554;28;20408;-76
2021/11/05 02:49:15;;;;;;;46.53;24.75;;;-1.40;92.50;;;;;;5090289;28;20044;-76
2021/11/05 02:51:46;;;;;;;59.35;27.70;;;-1.40;92.60;;;;;;5090401;28;20052;-76
2021/11/05 02:54:14;;;;;;;46.95;25.38;;;-1.40;92.90;;;;;;5072953;28;20048;-76
2021/11/05 02:56:42;;;;;;;40.20;22.13;;;-1.40;92.90;;;;;;5089843;28;20535;-76
2021/11/05 02:59:09;;;;;;;39.60;20.02;;;-1.50;92.70;;;;;;5056283;28;20063;-76
2021/11/05 03:01:37;;;;;;;56.60;27.27;;;-1.50;92.60;;;;;;5090149;28;20044;-76
2021/11/05 03:04:08;;;;;;;49.70;25.63;;;-1.50;92.70;;;;;;5055738;28;20055;-76
2021/11/05 03:06:38;;;;;;;50.33;25.10;;;-1.50;92.90;;;;;;5072060;28;20381;-75
2021/11/05 03:09:13;;;;;;;35.60;18.90;;;-1.50;92.90;;;;;;5090541;28;20044;-75
2021/11/05 03:11:42;;;;;;;47.55;22.73;;;-1.60;92.80;;;;;;5073135;28;20488;-76
2021/11/05 03:14:11;;;;;;;47.25;21.98;;;-1.60;92.80;;;;;;5090526;28;20063;-76
2021/11/05 03:16:40;;;;;;;54.60;25.95;;;-1.60;92.80;;;;;;5073797;28;20068;-75
2021/11/05 03:19:08;;;;;;;48.97;23.92;;;-1.60;92.80;;;;;;5093805;28;20044;-75
2021/11/05 03:21:36;;;;;;;41.03;21.23;;;-1.60;92.90;;;;;;5094651;28;20048;-75
2021/11/05 03:24:04;;;;;;;42.78;21.98;;;-1.60;92.90;;;;;;5076523;28;20048;-75
2021/11/05 03:26:33;;;;;;;40.60;20.92;;;-1.60;93.00;;;;;;5076203;28;20043;-74
2021/11/05 03:29:01;;;;;;;38.63;21.25;;;-1.60;93.00;;;;;;5075922;28;20495;-75
2021/11/05 03:31:28;;;;;;;39.97;20.52;;;-1.70;92.80;;;;;;5076366;28;20059;-76
2021/11/05 03:33:56;;;;;;;32.08;16.83;;;-1.70;92.80;;;;;;5075433;28;20059;-76
2021/11/05 03:36:26;;;;;;;45.58;22.13;;;-1.70;92.70;;;;;;5075696;28;20048;-75
2021/11/05 03:38:54;;;;;;;52.20;21.63;;;-1.70;92.70;;;;;;5056824;28;20048;-75
2021/11/05 03:41:22;;;;;;;42.55;21.15;;;-1.70;92.90;;;;;;5091207;28;20055;-75
2021/11/05 03:43:50;;;;;;;38.53;20.65;;;-1.70;93.00;;;;;;5076094;28;20063;-76
2021/11/05 03:46:17;;;;;;;62.83;29.55;;;-1.70;93.10;;;;;;5094668;28;20051;-75
2021/11/05 03:48:45;;;;;;;44.10;23.60;;;-1.70;93.30;;;;;;5059401;28;20044;-75
2021/11/05 03:51:13;;;;;;;43.67;23.50;;;-1.70;93.10;;;;;;5075780;28;20400;-75
2021/11/05 03:53:41;;;;;;;42.50;22.80;;;-1.70;92.90;;;;;;5076224;28;20059;-75
2021/11/05 03:56:08;;;;;;;38.17;21.27;;;-1.70;92.90;;;;;;5093154;28;20059;-76
2021/11/05 03:58:36;;;;;;;48.30;23.08;;;-1.80;92.90;;;;;;5093921;28;20047;-75
2021/11/05 04:01:05;;;;;;;45.97;21.35;;;-1.70;93.00;;;;;;5094255;28;20408;-75
2021/11/05 04:03:33;;;;;;;48.38;22.70;;;-1.80;93.00;;;;;;5059469;28;20508;-75
2021/11/05 04:06:01;;;;;;;42.25;23.00;;;-1.80;92.90;;;;;;5076007;28;20036;-74
2021/11/05 04:08:28;;;;;;;44.33;23.48;;;-1.80;93.00;;;;;;5055710;28;20040;-75
2021/11/05 04:10:57;;;;;;;39.58;22.02;;;-1.80;93.30;;;;;;5084771;28;20341;-75
2021/11/05 04:13:25;;;;;;;51.53;21.65;;;-1.80;93.10;;;;;;5075302;28;20052;-75
2021/11/05 04:15:53;;;;;;;35.30;19.52;;;-1.80;93.10;;;;;;5093847;28;20416;-76
2021/11/05 04:18:21;;;;;;;50.10;25.52;;;-1.80;93.00;;;;;;5075302;28;20404;-75
2021/11/05 04:20:48;;;;;;;48.28;24.15;;;-1.80;93.20;;;;;;5074978;28;20044;-77
2021/11/05 04:23:17;;;;;;;42.90;22.83;;;-1.80;93.20;;;;;;5058180;28;20070;-76
2021/11/05 04:25:46;;;;;;;45.72;20.85;;;-1.80;93.00;;;;;;5093119;28;20032;-76
2021/11/05 04:28:15;;;;;;;57.08;27.17;;;-1.80;93.00;;;;;;5092394;28;20155;-76
2021/11/05 04:30:44;;;;;;;57.42;28.48;;;-1.80;93.10;;;;;;5074989;28;20396;-76
2021/11/05 04:33:12;;;;;;;55.83;29.27;;;-1.80;93.40;;;;;;5058236;28;20059;-76
2021/11/05 04:35:40;;;;;;;44.15;22.63;;;-1.80;93.50;;;;;;5074849;28;20060;-76
2021/11/05 04:38:08;;;;;;;43.28;24.52;;;-1.70;93.30;;;;;;5093497;28;20048;-76
2021/11/05 04:40:36;;;;;;;55.13;25.55;;;-1.80;93.20;;;;;;5074848;28;20515;-76
2021/11/05 04:43:04;;;;;;;53.83;25.90;;;-1.70;93.40;;;;;;5087549;28;20091;-76
2021/11/05 04:45:32;;;;;;;58.72;25.40;;;-1.70;93.40;;;;;;5073439;28;20051;-76
2021/11/05 04:48:00;;;;;;;55.20;26.63;;;-1.70;93.40;;;;;;5080901;28;20507;-76
2021/11/05 04:50:28;;;;;;;46.58;22.58;;;-1.70;93.30;;;;;;5041863;28;20048;-76
2021/11/05 04:52:56;;;;;;;47.53;23.80;;;-1.70;93.20;;;;;;5092448;28;20040;-76
2021/11/05 04:55:24;;;;;;;52.70;26.73;;;-1.80;93.20;;;;;;5041049;28;20059;-77
2021/11/05 04:57:52;;;;;;;44.40;23.05;;;-1.80;93.40;;;;;;5055214;28;20052;-76
2021/11/05 05:00:22;;;;;;;39.25;23.05;;;-1.80;93.50;;;;;;5074780;28;20413;-76
2021/11/05 05:02:49;;;;;;;39.95;20.35;;;-1.80;93.30;;;;;;5092423;28;20354;-77
2021/11/05 05:05:17;;;;;;;40.10;20.83;;;-1.80;93.10;;;;;;5057478;28;20523;-76
2021/11/05 05:07:46;;;;;;;39.53;20.13;;;-1.90;93.00;;;;;;5091956;28;20044;-76
2021/11/05 05:10:14;;;;;;;38.13;20.27;;;-1.90;93.10;;;;;;5054649;28;20059;-76
2021/11/05 05:12:43;;;;;;;37.95;19.95;;;-1.90;93.20;;;;;;5072949;28;20048;-76
2021/11/05 05:15:13;;;;;;;50.67;23.77;;;-1.90;93.30;;;;;;5057468;28;20485;-76
2021/11/05 05:17:41;;;;;;;41.95;22.48;;;-1.90;93.50;;;;;;5073926;28;20066;-76
2021/11/05 05:20:12;;;;;;;53.10;22.65;;;-1.90;93.80;;;;;;5091604;28;20048;-76
2021/11/05 05:22:40;;;;;;;45.15;23.13;;;-1.80;94.30;;;;;;5074484;28;20048;-76
2021/11/05 05:25:10;;;;;;;48.42;25.23;;;-1.70;94.60;;;;;;5072813;28;20044;-77
2021/11/05 05:27:39;;;;;;;48.70;24.02;;;-1.50;94.70;;;;;;5073577;28;20058;-76
2021/11/05 05:30:10;;;;;;;36.80;20.80;;;-1.40;94.70;;;;;;5092084;28;20044;-76
2021/11/05 05:32:42;;;;;;;42.75;21.90;;;-1.20;94.50;;;;;;5057464;28;20396;-76
2021/11/05 05:35:10;;;;;;;36.55;20.65;;;-1.10;94.30;;;;;;5073706;28;20048;-76
2021/11/05 05:37:38;;;;;;;38.90;20.42;;;-1.00;94.10;;;;;;5092508;28;20044;-77
2021/11/05 05:40:07;;;;;;;34.40;18.88;;;-0.90;94.00;;;;;;5091328;28;20489;-76
2021/11/05 05:42:35;;;;;;;33.25;18.40;;;-0.70;93.90;;;;;;5091215;28;20048;-76
2021/11/05 05:45:04;;;;;;;37.67;19.75;;;-0.70;93.70;;;;;;5073781;28;20040;-76
2021/11/05 05:47:32;;;;;;;28.73;17.38;;;-0.60;93.60;;;;;;5090521;28;20044;-75
2021/11/05 05:50:00;;;;;;;30.20;16.90;;;-0.60;93.40;;;;;;5073946;28;20044;-76
2021/11/05 05:52:27;;;;;;;31.20;17.23;;;-0.60;93.20;;;;;;5073840;28;20088;-76
2021/11/05 05:54:55;;;;;;;32.92;17.27;;;-0.60;93.10;;;;;;5073969;28;20043;-76
2021/11/05 05:57:23;;;;;;;33.78;16.60;;;-0.60;93.00;;;;;;5073847;28;20047;-76
2021/11/05 05:59:50;;;;;;;36.63;17.85;;;-0.60;93.00;;;;;;5057325;28;20044;-76
2021/11/05 06:02:18;;;;;;;36.13;18.85;;;-0.60;93.20;;;;;;5056119;28;20055;-76
2021/11/05 06:04:45;;;;;;;37.03;20.58;;;-0.60;93.40;;;;;;5057118;28;20036;-76
2021/11/05 06:07:13;;;;;;;35.67;19.95;;;-0.50;93.40;;;;;;5073991;28;20044;-76
2021/11/05 06:09:41;;;;;;;37.53;19.73;;;-0.40;93.40;;;;;;5090184;28;20053;-76
2021/11/05 06:12:09;;;;;;;36.10;20.50;;;-0.40;93.30;;;;;;5092306;28;20048;-76
2021/11/05 06:14:36;;;;;;;37.60;22.13;;;-0.30;93.20;;;;;;5073618;28;20051;-76
2021/11/05 06:17:04;;;;;;;38.47;21.10;;;-0.20;93.20;;;;;;5091851;28;20040;-76
2021/11/05 06:19:32;;;;;;;41.72;21.98;;;-0.10;93.10;;;;;;5091310;28;20044;-76
2021/11/05 06:22:00;;;;;;;39.35;21.40;;;-0.10;93.10;;;;;;5073446;28;20054;-76
2021/11/05 06:24:27;;;;;;;38.03;21.73;;;0.00;93.10;;;;;;5072937;28;20044;-75
2021/11/05 06:26:55;;;;;;;39.60;22.40;;;0.10;93.00;;;;;;5073806;28;20081;-75
2021/11/05 06:29:22;;;;;;;38.17;22.23;;;0.10;93.00;;;;;;5074121;28;20048;-76
2021/11/05 06:31:50;;;;;;;41.42;20.83;;;0.20;93.00;;;;;;5081715;28;20040;-75
2021/11/05 06:34:17;;;;;;;42.63;22.00;;;0.20;92.90;;;;;;5083629;28;20048;-75
2021/11/05 06:36:45;;;;;;;39.50;21.83;;;0.30;92.90;;;;;;5083374;28;20405;-75
2021/11/05 06:39:13;;;;;;;36.90;20.42;;;0.30;93.00;;;;;;5086722;28;20138;-75
2021/11/05 06:41:41;;;;;;;41.95;21.48;;;0.40;92.90;;;;;;5074756;28;20052;-74
2021/11/05 06:44:09;;;;;;;35.90;20.77;;;0.50;92.90;;;;;;5056601;28;20472;-75
2021/11/05 06:46:36;;;;;;;34.58;19.38;;;0.60;92.90;;;;;;5091284;28;20048;-75
2021/11/05 06:49:04;;;;;;;37.20;20.67;;;0.70;92.80;;;;;;5090990;28;20048;-75
2021/11/05 06:51:31;;;;;;;36.67;20.75;;;0.70;92.70;;;;;;5073603;28;20394;-75
2021/11/05 06:53:59;;;;;;;37.67;20.90;;;0.80;92.70;;;;;;5093653;28;20044;-75
2021/11/05 06:56:27;;;;;;;36.65;21.55;;;0.80;92.60;;;;;;5044222;28;20044;-75
2021/11/05 06:58:57;;;;;;;31.50;18.13;;;0.80;92.60;;;;;;5060357;28;20063;-76
2021/11/05 07:01:25;;;;;;;31.88;19.23;;;0.90;92.50;;;;;;5095222;28;20048;-75
2021/11/05 07:03:54;;;;;;;32.85;19.85;;;1.00;92.40;;;;;;5094579;28;20051;-74
2021/11/05 07:06:23;;;;;;;39.67;20.67;;;1.00;92.40;;;;;;5077063;28;20052;-77
2021/11/05 07:08:50;;;;;;;43.83;21.27;;;1.00;92.30;;;;;;5073526;28;20044;-75
2021/11/05 07:11:18;;;;;;;36.42;20.55;;;1.00;92.20;;;;;;5077381;28;20048;-75
2021/11/05 07:13:45;;;;;;;39.50;22.65;;;1.00;92.20;;;;;;5093996;28;20052;-75
2021/11/05 07:16:13;;;;;;;36.28;19.85;;;1.10;92.20;;;;;;5094769;28;20449;-74
2021/11/05 07:18:41;;;;;;;44.40;20.90;;;1.00;92.20;;;;;;5059140;28;20052;-75
2021/11/05 07:21:12;;;;;;;40.10;21.20;;;1.10;92.20;;;;;;5076708;28;20055;-75
2021/11/05 07:23:40;;;;;;;35.00;21.50;;;1.10;92.20;;;;;;5093886;28;20100;-75
2021/11/05 07:26:11;;;;;;;44.92;21.27;;;1.20;92.20;;;;;;5060362;28;20049;-75
2021/11/05 07:28:39;;;;;;;43.90;23.50;;;1.20;92.20;;;;;;5070504;28;20031;-75
2021/11/05 07:31:07;;;;;;;39.38;22.55;;;1.20;92.20;;;;;;5063284;28;20792;-75
2021/11/05 07:33:35;;;;;;;39.55;21.27;;;1.30;92.10;;;;;;5054355;28;20516;-75
2021/11/05 07:36:02;;;;;;;43.97;23.60;;;1.30;92.10;;;;;;5058036;28;20055;-75
2021/11/05 07:38:30;;;;;;;39.17;22.55;;;1.40;92.10;;;;;;5074818;28;20520;-76
2021/11/05 07:40:58;;;;;;;41.42;22.85;;;1.50;92.10;;;;;;5086431;28;20428;-75
2021/11/05 07:43:25;;;;;;;45.03;22.13;;;1.60;92.00;;;;;;5057393;28;20082;-75
2021/11/05 07:45:53;;;;;;;36.88;22.23;;;1.70;92.00;;;;;;5090127;28;20484;-75
2021/11/05 07:48:25;;;;;;;38.63;21.70;;;1.70;91.90;;;;;;5059249;28;20056;-75
2021/11/05 07:50:53;;;;;;;46.13;24.08;;;1.70;91.90;;;;;;5075169;28;20126;-75
2021/11/05 07:53:21;;;;;;;38.40;22.05;;;1.80;91.80;;;;;;5076285;28;20070;-75
2021/11/05 07:55:48;;;;;;;46.53;24.42;;;1.80;91.80;;;;;;5074295;28;20056;-75
2021/11/05 07:58:18;;;;;;;43.25;23.75;;;1.80;91.80;;;;;;5093516;28;20060;-75
2021/11/05 08:00:55;;;;;;;41.30;24.25;;;1.90;91.90;;;;;;5086942;28;20390;-75
2021/11/05 08:03:28;;;;;;;48.60;23.80;;;2.00;91.90;;;;;;5057515;28;20047;-76
2021/11/05 08:05:58;;;;;;;42.63;21.27;;;2.20;91.90;;;;;;5093259;28;20044;-75
2021/11/05 08:08:28;;;;;;;36.80;21.00;;;2.30;91.80;;;;;;5075561;28;20036;-75
2021/11/05 08:10:57;;;;;;;50.65;24.27;;;2.40;91.70;;;;;;5094185;28;20051;-75
2021/11/05 08:13:24;;;;;;;41.22;24.08;;;2.50;91.60;;;;;;5089185;28;20036;-75
2021/11/05 08:15:52;;;;;;;47.38;24.60;;;2.60;91.50;;;;;;5067222;28;20298;-75
2021/11/05 08:18:20;;;;;;;40.72;23.33;;;2.70;91.50;;;;;;5079614;28;20052;-76
2021/11/05 08:20:47;;;;;;;43.95;23.63;;;2.80;91.50;;;;;;5081871;28;20059;-76
2021/11/05 08:23:15;;;;;;;39.95;22.63;;;2.80;91.40;;;;;;5060101;28;20053;-76
2021/11/05 08:25:47;;;;;;;39.80;22.65;;;2.90;91.30;;;;;;5065022;28;20686;-76
2021/11/05 08:28:17;;;;;;;42.37;23.43;;;3.00;91.30;;;;;;5067953;28;20413;-76
2021/11/05 08:30:45;;;;;;;38.83;23.25;;;3.00;91.10;;;;;;5080490;28;20654;-75
2021/11/05 08:33:14;;;;;;;43.63;24.75;;;3.00;91.10;;;;;;5048252;28;20048;-75
2021/11/05 08:35:48;;;;;;;45.10;25.58;;;3.10;91.20;;;;;;5064202;28;20537;-80
2021/11/05 08:38:17;;;;;;;46.08;25.45;;;3.10;91.20;;;;;;5081323;28;20047;-76
2021/11/05 08:40:47;;;;;;;49.33;25.85;;;3.20;91.20;;;;;;5065229;28;20477;-75
2021/11/05 08:43:19;;;;;;;47.67;26.67;;;3.20;91.20;;;;;;5083365;28;20408;-76
2021/11/05 08:45:46;;;;;;;49.65;26.35;;;3.30;91.20;;;;;;5040815;28;20088;-82
2021/11/05 08:48:15;;;;;;;67.72;27.25;;;3.50;91.30;;;;;;5081369;28;20044;-76
2021/11/05 08:50:43;;;;;;;62.45;28.25;;;3.70;91.20;;;;;;5081841;28;20135;-76
2021/11/05 08:53:11;;;;;;;51.55;24.92;;;3.80;91.20;;;;;;5083185;28;20055;-76
2021/11/05 08:55:39;;;;;;;45.60;24.52;;;3.90;91.00;;;;;;5082137;28;20048;-75
2021/11/05 08:58:08;;;;;;;50.70;24.27;;;4.00;90.90;;;;;;5046717;28;20505;-76
2021/11/05 09:00:36;;;;;;;43.45;22.23;;;4.10;90.80;;;;;;5081752;28;20055;-74
2021/11/05 09:03:05;;;;;;;49.08;23.63;;;4.10;90.80;;;;;;5047134;28;20040;-75
2021/11/05 09:05:35;;;;;;;47.00;24.77;;;4.20;90.70;;;;;;5063342;28;20052;-76
2021/11/05 09:08:04;;;;;;;50.28;25.55;;;4.30;90.70;;;;;;5038649;28;20048;-77
2021/11/05 09:10:32;;;;;;;44.00;23.35;;;4.30;90.70;;;;;;5065032;28;20044;-76
2021/11/05 09:13:00;;;;;;;49.00;25.42;;;4.30;90.70;;;;;;5081816;28;20044;-78
2021/11/05 09:15:29;;;;;;;48.72;24.98;;;4.50;90.80;;;;;;5062556;28;20406;-76
2021/11/05 09:17:58;;;;;;;43.08;23.17;;;4.70;90.80;;;;;;5081932;28;20520;-76
2021/11/05 09:20:26;;;;;;;47.92;25.45;;;4.80;90.80;;;;;;5082699;28;20044;-75
2021/11/05 09:22:54;;;;;;;41.40;23.88;;;4.90;90.60;;;;;;5080761;28;20036;-76
2021/11/05 09:25:22;;;;;;;42.67;24.20;;;5.10;90.50;;;;;;5046993;28;20060;-77
2021/11/05 09:27:49;;;;;;;43.25;22.13;;;5.30;90.50;;;;;;5082600;28;20508;-76
2021/11/05 09:30:19;;;;;;;35.92;21.80;;;5.30;90.40;;;;;;5080213;28;20063;-76
2021/11/05 09:32:47;;;;;;;32.60;20.90;;;5.50;90.40;;;;;;5062311;28;20039;-76
2021/11/05 09:35:15;;;;;;;46.17;23.58;;;5.60;90.30;;;;;;5080514;28;20048;-76
2021/11/05 09:37:44;;;;;;;39.85;21.33;;;5.70;90.20;;;;;;5080377;28;20063;-75
2021/11/05 09:40:15;;;;;;;43.28;25.27;;;5.80;90.10;;;;;;5047554;28;20052;-76
2021/11/05 09:42:44;;;;;;;41.17;21.83;;;6.00;90.10;;;;;;5081265;28;20477;-75
2021/11/05 09:45:13;;;;;;;35.17;19.88;;;6.10;90.10;;;;;;5080087;28;20053;-76
2021/11/05 09:47:42;;;;;;;36.67;21.60;;;6.20;90.00;;;;;;5063075;28;20680;-76
2021/11/05 09:50:15;;;;;;;31.17;18.75;;;6.20;89.90;;;;;;5082074;28;20044;-76
2021/11/05 09:52:45;;;;;;;31.47;20.03;;;6.30;89.80;;;;;;5063359;28;20052;-76
2021/11/05 09:55:16;;;;;;;36.57;19.27;;;6.30;89.80;;;;;;5063886;28;20519;-76
2021/11/05 09:57:45;;;;;;;38.30;21.13;;;6.30;89.80;;;;;;5080836;28;20076;-76
2021/11/05 10:00:16;;;;;;;32.90;20.05;;;6.30;89.80;;;;;;5062450;28;20053;-75
2021/11/05 10:02:45;;;;;;;34.75;19.77;;;6.40;89.70;;;;;;5029431;28;20061;-76
2021/11/05 10:05:14;;;;;;;37.13;20.65;;;6.40;89.80;;;;;;5061892;28;20074;-76
2021/11/05 10:07:48;;;;;;;40.58;22.20;;;6.40;89.80;;;;;;5045964;28;20064;-77
2021/11/05 10:10:31;;;;;;;43.10;23.35;;;6.50;89.80;;;;;;5080290;28;20056;-76
2021/11/05 10:13:04;;;;;;;;;;;6.60;89.80;;;;;;5080081;28;20048;-77
2021/11/05 10:15:46;;;;;;;38.40;22.83;;;6.60;89.80;;;;;;5081523;28;19927;-76
2021/11/05 10:18:25;;;;;;;41.50;24.70;;;6.70;89.80;;;;;;5063871;28;20048;-76
2021/11/05 10:21:14;;;;;;;37.90;21.42;;;6.70;89.70;;;;;;5081773;28;20418;-77
2021/11/05 10:23:44;;;;;;;33.60;18.48;;;6.70;89.80;;;;;;5062772;28;20512;-78
2021/11/05 10:26:26;;;;;;;33.17;17.30;;;6.80;90.00;;;;;;5082999;28;20041;-76
2021/11/05 10:28:55;;;;;;;39.97;16.77;;;6.80;90.20;;;;;;5084786;28;20056;-76
2021/11/05 10:31:31;;;;;;;19.08;9.95;;;7.00;90.50;;;;;;5065928;28;20052;-77
2021/11/05 10:33:58;;;;;;;19.65;8.88;;;7.20;91.20;;;;;;5062434;28;20052;-76
2021/11/05 10:36:27;;;;;;;17.33;7.88;;;7.30;91.50;;;;;;5065756;28;20052;-77
2021/11/05 10:38:58;;;;;;;15.18;6.78;;;7.60;91.50;;;;;;5034382;28;20044;-77
2021/11/05 10:41:29;;;;;;;13.48;6.03;;;7.80;91.50;;;;;;5067160;28;20064;-77
2021/11/05 10:44:11;;;;;;;13.45;5.60;;;8.00;91.60;;;;;;5083592;28;20067;-77
2021/11/05 10:46:41;;;;;;;12.35;4.40;;;8.30;91.50;;;;;;5065910;28;20057;-77
2021/11/05 10:49:25;;;;;;;13.65;3.75;;;8.50;91.40;;;;;;5083371;28;20048;-77
2021/11/05 10:52:20;;;;;;;11.63;3.92;;;8.80;91.30;;;;;;5068535;28;20068;-77
2021/11/05 10:54:57;;;;;;;7.72;3.10;;;9.20;91.30;;;;;;5062066;28;20041;-77
2021/11/05 10:57:49;;;;;;;7.03;3.00;;;9.50;91.00;;;;;;5057364;28;20188;-77
2021/11/05 11:00:21;;;;;;;7.43;3.00;;;9.80;90.60;;;;;;5074885;28;20124;-78
2021/11/05 11:02:48;;;;;;;6.15;2.38;;;10.10;90.20;;;;;;5055895;28;20071;-78
2021/11/05 11:05:33;;;;;;;5.90;2.60;;;10.30;89.80;;;;;;5057137;28;20052;-79
2021/11/05 11:08:02;;;;;;;9.82;2.08;;;10.60;89.60;;;;;;5075074;28;20497;-78
2021/11/05 11:10:34;;;;;;;9.80;1.80;;;10.70;89.40;;;;;;5075079;28;20044;-80
2021/11/05 11:13:02;;;;;;;8.83;2.07;;;10.80;88.30;;;;;;5057072;28;20374;-78
2021/11/05 11:15:31;;;;;;;6.20;1.67;;;10.80;88.00;;;;;;5057224;28;20386;-77
2021/11/05 11:17:59;;;;;;;7.30;2.10;;;10.80;87.70;;;;;;5056572;28;20059;-77
2021/11/05 11:20:32;;;;;;;16.05;2.13;;;10.80;87.70;;;;;;5079488;28;20048;-77
2021/11/05 11:23:01;;;;;;;28.38;2.08;;;11.00;87.80;;;;;;5065037;28;20040;-75
2021/11/05 11:25:29;;;;;;;11.38;2.08;;;11.10;87.80;;;;;;5082880;28;20044;-77
2021/11/05 11:27:57;;;;;;;5.32;1.75;;;11.20;87.50;;;;;;5082991;28;20051;-77
2021/11/05 11:30:25;;;;;;;6.25;1.48;;;11.30;87.10;;;;;;5064188;28;20064;-77
2021/11/05 11:32:53;;;;;;;6.88;1.35;;;11.30;85.80;;;;;;5064340;28;20402;-77
2021/11/05 11:35:21;;;;;;;10.00;1.60;;;11.30;85.90;;;;;;5082355;28;20056;-77
2021/11/05 11:37:49;;;;;;;8.80;1.92;;;11.20;85.90;;;;;;5084656;28;20040;-77
2021/11/05 11:40:17;;;;;;;7.93;1.88;;;11.20;86.10;;;;;;5082948;28;20335;-77
2021/11/05 11:42:44;;;;;;;6.20;1.70;;;11.30;86.10;;;;;;5048066;28;20044;-77
2021/11/05 11:45:13;;;;;;;9.52;1.80;;;11.30;85.90;;;;;;5067152;28;20045;-77
2021/11/05 11:47:46;;;;;;;7.00;1.83;;;11.30;86.00;;;;;;5081306;28;20474;-77
2021/11/05 11:50:27;;;;;;;11.73;2.00;;;11.40;85.80;;;;;;5064473;28;20052;-77
2021/11/05 11:53:03;;;;;;;4.85;1.70;;;11.50;85.40;;;;;;5066725;28;20393;-78
2021/11/05 11:55:33;;;;;;;11.65;2.05;;;11.70;85.20;;;;;;5064546;28;20041;-77
2021/11/05 11:58:19;;;;;;;7.47;1.92;;;11.80;84.80;;;;;;5056646;28;20044;-78
2021/11/05 12:00:49;;;;;;;10.60;1.83;;;12.00;83.80;;;;;;5056506;28;20127;-77
2021/11/05 12:03:26;;;;;;;10.35;1.48;;;12.10;83.30;;;;;;5074259;28;20049;-78
2021/11/05 12:06:01;;;;;;;8.23;1.95;;;12.10;83.20;;;;;;5055791;28;20049;-78
2021/11/05 12:08:44;;;;;;;5.15;1.60;;;12.10;83.00;;;;;;5055896;28;20053;-78
2021/11/05 12:11:20;;;;;;;7.28;1.90;;;12.20;83.00;;;;;;5073201;28;20053;-77
2021/11/05 12:14:08;;;;;;;7.18;1.20;;;12.30;82.80;;;;;;5074139;28;20044;-78
2021/11/05 12:16:36;;;;;;;7.07;2.00;;;12.20;82.50;;;;;;5056119;28;20064;-77
2021/11/05 12:19:12;;;;;;;5.38;1.65;;;12.10;82.60;;;;;;5073932;28;20458;-78
2021/11/05 12:21:42;;;;;;;8.30;1.75;;;12.00;82.60;;;;;;5073577;28;20052;-77
2021/11/05 12:24:19;;;;;;;8.90;2.35;;;11.90;82.70;;;;;;5073094;28;20048;-77
2021/11/05 12:27:01;;;;;;;6.30;1.48;;;11.80;82.80;;;;;;5072856;28;20049;-78
2021/11/05 12:29:31;;;;;;;5.57;1.40;;;11.70;82.50;;;;;;5073513;28;20059;-77
2021/11/05 12:32:01;;;;;;;3.30;1.05;;;11.50;82.70;;;;;;5073033;28;20060;-77
2021/11/05 12:34:36;;;;;;;10.18;1.55;;;11.50;82.90;;;;;;5072793;28;20516;-77
2021/11/05 12:37:05;;;;;;;8.65;2.03;;;11.40;83.20;;;;;;5073669;28;20056;-78
2021/11/05 12:39:36;;;;;;;7.72;1.05;;;11.30;83.30;;;;;;5055642;28;20048;-77
2021/11/05 12:42:05;;;;;;;7.40;1.30;;;11.30;83.20;;;;;;5055550;28;20378;-78
2021/11/05 12:45:00;;;;;;;8.25;1.38;;;11.30;83.20;;;;;;5055839;28;20041;-77
2021/11/05 12:47:56;;;;;;;9.38;1.25;;;11.30;83.40;;;;;;5073551;28;20044;-77
2021/11/05 12:50:26;;;;;;;5.35;1.23;;;11.20;83.40;;;;;;5073152;28;20052;-77